KAY873 FSIA-VRMM
Flight info
| Callsign | KAY873 |
|---|---|
| Flight time | 2h 45m |
| Altitude | 39000 |
| Route | DULM1B DULMA ORLOM UM307 OTKIR G465 ESKOL ESKO1B |
| Aircraft | A21N/M-SDE3FGHIRWY/LB1 |
Departure
| Time | 2026-04-24 09:34 |
|---|---|
| Airport | Seychelles International Airport (FSIA) |
Arrival
| Time | 2026-04-24 12:20 |
|---|---|
| Airport | Velana International Airport (VRMM) |
| Time | Latitude | Longitude | Altitude | Speed | Heading |
|---|---|---|---|---|---|
| 2026-04-24 09:24 | -4.67058 | 55.51239 | 17 ft | 0 kts | 216° |
| 2026-04-24 09:27 | -4.67052 | 55.51244 | 17 ft | 2 kts | 238° |
| 2026-04-24 09:28 | -4.67044 | 55.51257 | 16 ft | 2 kts | 233° |
| 2026-04-24 09:28 | -4.67035 | 55.51269 | 15 ft | 2 kts | 232° |
| 2026-04-24 09:28 | -4.67026 | 55.51281 | 15 ft | 2 kts | 233° |
| 2026-04-24 09:28 | -4.67017 | 55.51293 | 15 ft | 2 kts | 233° |
| 2026-04-24 09:29 | -4.67010 | 55.51302 | 15 ft | 0 kts | 233° |
| 2026-04-24 09:29 | -4.67007 | 55.51306 | 15 ft | 0 kts | 230° |
| 2026-04-24 09:30 | -4.67008 | 55.51305 | 15 ft | 0 kts | 230° |
| 2026-04-24 09:31 | -4.67011 | 55.51301 | 15 ft | 2 kts | 236° |
| 2026-04-24 09:31 | -4.67014 | 55.51294 | 15 ft | 0 kts | 247° |
| 2026-04-24 09:31 | -4.67014 | 55.51273 | 15 ft | 6 kts | 283° |
| 2026-04-24 09:31 | -4.66990 | 55.51228 | 15 ft | 8 kts | 306° |
| 2026-04-24 09:32 | -4.66936 | 55.51199 | 15 ft | 9 kts | 351° |
| 2026-04-24 09:32 | -4.66868 | 55.51172 | 15 ft | 11 kts | 316° |
| 2026-04-24 09:32 | -4.66820 | 55.51107 | 15 ft | 12 kts | 302° |
| 2026-04-24 09:32 | -4.66763 | 55.51043 | 15 ft | 12 kts | 340° |
| 2026-04-24 09:33 | -4.66689 | 55.51072 | 15 ft | 10 kts | 40° |
| 2026-04-24 09:33 | -4.66677 | 55.51101 | 15 ft | 5 kts | 95° |
| 2026-04-24 09:33 | -4.66685 | 55.51120 | 15 ft | 0 kts | 124° |
| 2026-04-24 09:34 | -4.66768 | 55.51231 | 15 ft | 59 kts | 126° |
| 2026-04-24 09:34 | -4.67207 | 55.51852 | 16 ft | 152 kts | 124° |
| 2026-04-24 09:34 | -4.67921 | 55.52877 | 340 ft | 198 kts | 125° |
| 2026-04-24 09:34 | -4.68787 | 55.54089 | 1025 ft | 226 kts | 125° |
| 2026-04-24 09:35 | -4.69715 | 55.55376 | 1915 ft | 235 kts | 124° |
| 2026-04-24 09:35 | -4.70671 | 55.56718 | 2851 ft | 243 kts | 124° |
| 2026-04-24 09:35 | -4.71672 | 55.58145 | 3551 ft | 261 kts | 123° |
| 2026-04-24 09:35 | -4.72746 | 55.59678 | 4292 ft | 276 kts | 122° |
| 2026-04-24 09:36 | -4.73569 | 55.61384 | 5171 ft | 279 kts | 98° |
| 2026-04-24 09:36 | -4.73489 | 55.63281 | 6154 ft | 277 kts | 71° |
| 2026-04-24 09:36 | -4.72568 | 55.64928 | 7092 ft | 275 kts | 46° |
| 2026-04-24 09:36 | -4.71230 | 55.66333 | 7877 ft | 285 kts | 44° |
| 2026-04-24 09:37 | -4.69821 | 55.67794 | 8428 ft | 302 kts | 45° |
| 2026-04-24 09:37 | -4.68309 | 55.69371 | 8943 ft | 321 kts | 45° |
| 2026-04-24 09:37 | -4.66716 | 55.71041 | 9419 ft | 339 kts | 45° |
| 2026-04-24 09:37 | -4.65036 | 55.72804 | 9765 ft | 360 kts | 46° |
| 2026-04-24 09:38 | -4.63289 | 55.74643 | 9794 ft | 367 kts | 46° |
| 2026-04-24 09:38 | -4.61520 | 55.76506 | 9788 ft | 368 kts | 46° |
| 2026-04-24 09:38 | -4.59751 | 55.78366 | 9796 ft | 368 kts | 45° |
| 2026-04-24 09:38 | -4.57981 | 55.80224 | 9817 ft | 368 kts | 45° |
| 2026-04-24 09:39 | -4.56232 | 55.82059 | 9797 ft | 368 kts | 45° |
| 2026-04-24 09:39 | -4.54440 | 55.83937 | 10152 ft | 372 kts | 45° |
| 2026-04-24 09:39 | -4.52653 | 55.85809 | 10863 ft | 378 kts | 45° |
| 2026-04-24 09:39 | -4.50835 | 55.87712 | 11645 ft | 380 kts | 46° |
| 2026-04-24 09:40 | -4.48983 | 55.89652 | 12356 ft | 385 kts | 46° |
| 2026-04-24 09:40 | -4.47143 | 55.91582 | 13038 ft | 389 kts | 46° |
| 2026-04-24 09:40 | -4.45264 | 55.93565 | 13708 ft | 393 kts | 47° |
| 2026-04-24 09:40 | -4.43529 | 55.95674 | 14355 ft | 397 kts | 53° |
| 2026-04-24 09:41 | -4.41981 | 55.98005 | 14995 ft | 401 kts | 59° |
| 2026-04-24 09:41 | -4.40651 | 56.00454 | 15598 ft | 405 kts | 62° |
| 2026-04-24 09:41 | -4.39361 | 56.02964 | 16177 ft | 410 kts | 63° |
| 2026-04-24 09:41 | -4.38068 | 56.05505 | 16767 ft | 413 kts | 63° |
| 2026-04-24 09:42 | -4.36758 | 56.08075 | 17340 ft | 417 kts | 62° |
| 2026-04-24 09:42 | -4.35429 | 56.10678 | 17881 ft | 421 kts | 62° |
| 2026-04-24 09:42 | -4.34084 | 56.13308 | 18440 ft | 423 kts | 62° |
| 2026-04-24 09:42 | -4.32742 | 56.15924 | 18968 ft | 426 kts | 62° |
| 2026-04-24 09:43 | -4.31392 | 56.18554 | 19482 ft | 429 kts | 62° |
| 2026-04-24 09:43 | -4.30021 | 56.21220 | 19966 ft | 432 kts | 61° |
| 2026-04-24 09:43 | -4.28632 | 56.23920 | 20445 ft | 435 kts | 61° |
| 2026-04-24 09:43 | -4.27243 | 56.26618 | 20915 ft | 438 kts | 61° |
| 2026-04-24 09:44 | -4.25842 | 56.29341 | 21355 ft | 441 kts | 61° |
| 2026-04-24 09:44 | -4.24432 | 56.32078 | 21815 ft | 443 kts | 60° |
| 2026-04-24 09:44 | -4.23032 | 56.34796 | 22245 ft | 445 kts | 60° |
| 2026-04-24 09:44 | -4.21604 | 56.37567 | 22655 ft | 448 kts | 60° |
| 2026-04-24 09:45 | -4.20172 | 56.40346 | 23050 ft | 452 kts | 60° |
| 2026-04-24 09:45 | -4.18728 | 56.43145 | 23418 ft | 455 kts | 60° |
| 2026-04-24 09:45 | -4.17277 | 56.45958 | 23791 ft | 459 kts | 60° |
| 2026-04-24 09:45 | -4.15802 | 56.48821 | 24160 ft | 462 kts | 60° |
| 2026-04-24 09:46 | -4.14324 | 56.51688 | 24535 ft | 465 kts | 60° |
| 2026-04-24 09:46 | -4.12843 | 56.54562 | 24887 ft | 468 kts | 60° |
| 2026-04-24 09:46 | -4.11346 | 56.57466 | 25238 ft | 470 kts | 61° |
| 2026-04-24 09:46 | -4.09850 | 56.60368 | 25573 ft | 473 kts | 60° |
| 2026-04-24 09:47 | -4.08340 | 56.63298 | 25893 ft | 476 kts | 60° |
| 2026-04-24 09:47 | -4.06820 | 56.66245 | 26193 ft | 479 kts | 60° |
| 2026-04-24 09:47 | -4.05284 | 56.69222 | 26482 ft | 481 kts | 60° |
| 2026-04-24 09:47 | -4.03741 | 56.72214 | 26766 ft | 484 kts | 60° |
| 2026-04-24 09:48 | -4.02190 | 56.75220 | 27022 ft | 486 kts | 60° |
| 2026-04-24 09:48 | -4.00631 | 56.78242 | 27286 ft | 489 kts | 61° |
| 2026-04-24 09:48 | -3.99081 | 56.81245 | 27557 ft | 490 kts | 61° |
| 2026-04-24 09:48 | -3.97523 | 56.84266 | 27915 ft | 490 kts | 61° |
| 2026-04-24 09:49 | -3.95966 | 56.87285 | 28283 ft | 489 kts | 61° |
| 2026-04-24 09:49 | -3.94399 | 56.90322 | 28657 ft | 488 kts | 60° |
| 2026-04-24 09:49 | -3.92855 | 56.93314 | 29040 ft | 487 kts | 60° |
| 2026-04-24 09:49 | -3.91306 | 56.96313 | 29419 ft | 486 kts | 60° |
| 2026-04-24 09:50 | -3.89740 | 56.99347 | 29826 ft | 485 kts | 60° |
| 2026-04-24 09:50 | -3.88199 | 57.02330 | 30212 ft | 484 kts | 60° |
| 2026-04-24 09:50 | -3.86667 | 57.05295 | 30596 ft | 483 kts | 60° |
| 2026-04-24 09:50 | -3.85114 | 57.08299 | 30989 ft | 482 kts | 60° |
| 2026-04-24 09:51 | -3.83582 | 57.11266 | 31366 ft | 481 kts | 60° |
| 2026-04-24 09:51 | -3.82060 | 57.14210 | 31730 ft | 481 kts | 60° |
| 2026-04-24 09:51 | -3.80511 | 57.17206 | 32099 ft | 480 kts | 60° |
| 2026-04-24 09:51 | -3.78988 | 57.20152 | 32447 ft | 480 kts | 60° |
| 2026-04-24 09:52 | -3.77445 | 57.23137 | 32823 ft | 479 kts | 60° |
| 2026-04-24 09:52 | -3.75917 | 57.26091 | 33230 ft | 478 kts | 60° |
| 2026-04-24 09:52 | -3.74402 | 57.29023 | 33645 ft | 477 kts | 60° |
| 2026-04-24 09:52 | -3.72843 | 57.32039 | 34078 ft | 476 kts | 60° |
| 2026-04-24 09:53 | -3.71339 | 57.34947 | 34487 ft | 475 kts | 60° |
| 2026-04-24 09:53 | -3.69811 | 57.37898 | 34889 ft | 473 kts | 60° |
| 2026-04-24 09:53 | -3.68299 | 57.40819 | 35274 ft | 472 kts | 60° |
| 2026-04-24 09:53 | -3.66811 | 57.43696 | 35609 ft | 472 kts | 60° |
| 2026-04-24 09:54 | -3.65295 | 57.46627 | 35928 ft | 472 kts | 60° |
| 2026-04-24 09:54 | -3.63781 | 57.49554 | 36220 ft | 472 kts | 60° |
| 2026-04-24 09:54 | -3.62291 | 57.52433 | 36493 ft | 472 kts | 60° |
| 2026-04-24 09:54 | -3.60777 | 57.55357 | 36752 ft | 472 kts | 60° |
| 2026-04-24 09:55 | -3.57772 | 57.61163 | 36785 ft | 472 kts | 60° |
| 2026-04-24 09:55 | -3.54750 | 57.67003 | 36787 ft | 472 kts | 60° |
| 2026-04-24 09:56 | -3.51724 | 57.72845 | 36788 ft | 472 kts | 60° |
| 2026-04-24 09:56 | -3.48706 | 57.78673 | 36788 ft | 472 kts | 60° |
| 2026-04-24 09:57 | -3.45671 | 57.84532 | 36788 ft | 472 kts | 60° |
| 2026-04-24 09:57 | -3.42668 | 57.90331 | 36788 ft | 473 kts | 60° |
| 2026-04-24 09:58 | -3.39626 | 57.96204 | 36785 ft | 472 kts | 60° |
| 2026-04-24 09:58 | -3.36623 | 58.01998 | 36782 ft | 472 kts | 60° |
| 2026-04-24 09:59 | -3.33594 | 58.07840 | 36782 ft | 473 kts | 60° |
| 2026-04-24 09:59 | -3.30560 | 58.13690 | 36785 ft | 473 kts | 60° |
| 2026-04-24 10:00 | -3.27536 | 58.19522 | 36787 ft | 473 kts | 60° |
| 2026-04-24 10:00 | -3.24504 | 58.25368 | 36788 ft | 473 kts | 60° |
| 2026-04-24 10:01 | -3.21471 | 58.31215 | 36788 ft | 473 kts | 60° |
| 2026-04-24 10:01 | -3.18443 | 58.37051 | 36788 ft | 472 kts | 60° |
| 2026-04-24 10:02 | -3.15422 | 58.42870 | 36788 ft | 472 kts | 60° |
| 2026-04-24 10:02 | -3.12396 | 58.48694 | 36788 ft | 473 kts | 60° |
| 2026-04-24 10:03 | -3.09362 | 58.54533 | 36788 ft | 473 kts | 60° |
| 2026-04-24 10:03 | -3.06346 | 58.60336 | 36788 ft | 473 kts | 60° |
| 2026-04-24 10:04 | -3.03303 | 58.66181 | 36786 ft | 473 kts | 60° |
| 2026-04-24 10:04 | -3.00270 | 58.72006 | 36787 ft | 474 kts | 60° |
| 2026-04-24 10:05 | -2.97301 | 58.77906 | 36787 ft | 474 kts | 64° |
| 2026-04-24 10:05 | -2.94684 | 58.83908 | 36788 ft | 474 kts | 65° |
| 2026-04-24 10:06 | -2.90757 | 58.92962 | 36788 ft | 473 kts | 65° |
| 2026-04-24 10:07 | -2.88121 | 58.99013 | 36787 ft | 474 kts | 64° |
| 2026-04-24 10:07 | -2.85492 | 59.05035 | 36790 ft | 474 kts | 64° |
| 2026-04-24 10:08 | -2.82863 | 59.11057 | 36789 ft | 474 kts | 64° |
| 2026-04-24 10:08 | -2.80231 | 59.17083 | 36788 ft | 474 kts | 64° |
| 2026-04-24 10:09 | -2.77580 | 59.23149 | 36791 ft | 474 kts | 64° |
| 2026-04-24 10:09 | -2.74942 | 59.29185 | 36792 ft | 474 kts | 64° |
| 2026-04-24 10:10 | -2.72312 | 59.35202 | 36797 ft | 473 kts | 65° |
| 2026-04-24 10:10 | -2.69676 | 59.41235 | 36795 ft | 473 kts | 65° |
| 2026-04-24 10:11 | -2.67041 | 59.47262 | 36790 ft | 474 kts | 65° |
| 2026-04-24 10:11 | -2.64405 | 59.53288 | 36790 ft | 474 kts | 65° |
| 2026-04-24 10:12 | -2.61771 | 59.59312 | 36785 ft | 474 kts | 65° |
| 2026-04-24 10:12 | -2.59138 | 59.65327 | 36789 ft | 474 kts | 65° |
| 2026-04-24 10:13 | -2.56497 | 59.71357 | 36789 ft | 475 kts | 65° |
| 2026-04-24 10:13 | -2.53851 | 59.77399 | 36791 ft | 475 kts | 65° |
| 2026-04-24 10:14 | -2.51206 | 59.83435 | 36788 ft | 474 kts | 65° |
| 2026-04-24 10:14 | -2.48561 | 59.89462 | 36789 ft | 474 kts | 65° |
| 2026-04-24 10:15 | -2.45904 | 59.95509 | 36793 ft | 474 kts | 65° |
| 2026-04-24 10:15 | -2.43260 | 60.01552 | 37026 ft | 476 kts | 65° |
| 2026-04-24 10:15 | -2.41951 | 60.04568 | 37333 ft | 474 kts | 65° |
| 2026-04-24 10:16 | -2.40646 | 60.07574 | 37635 ft | 473 kts | 65° |
| 2026-04-24 10:16 | -2.39332 | 60.10593 | 37884 ft | 473 kts | 65° |
| 2026-04-24 10:16 | -2.38018 | 60.13601 | 38059 ft | 474 kts | 65° |
| 2026-04-24 10:16 | -2.36695 | 60.16628 | 38243 ft | 474 kts | 65° |
| 2026-04-24 10:17 | -2.35384 | 60.19626 | 38435 ft | 475 kts | 65° |
| 2026-04-24 10:17 | -2.34051 | 60.22669 | 38667 ft | 474 kts | 65° |
| 2026-04-24 10:17 | -2.32733 | 60.25677 | 38791 ft | 474 kts | 65° |
| 2026-04-24 10:18 | -2.30094 | 60.31701 | 38785 ft | 473 kts | 65° |
| 2026-04-24 10:18 | -2.27465 | 60.37698 | 38787 ft | 473 kts | 65° |
| 2026-04-24 10:19 | -2.24825 | 60.43720 | 38787 ft | 473 kts | 65° |
| 2026-04-24 10:19 | -2.22200 | 60.49707 | 38787 ft | 472 kts | 65° |
| 2026-04-24 10:20 | -2.19552 | 60.55744 | 38768 ft | 473 kts | 65° |
| 2026-04-24 10:20 | -2.16912 | 60.61766 | 38795 ft | 474 kts | 65° |
| 2026-04-24 10:21 | -2.14267 | 60.67796 | 38789 ft | 473 kts | 65° |
| 2026-04-24 10:21 | -2.11644 | 60.73774 | 38796 ft | 473 kts | 65° |
| 2026-04-24 10:22 | -2.08989 | 60.79824 | 38795 ft | 473 kts | 65° |
| 2026-04-24 10:22 | -2.06351 | 60.85839 | 38804 ft | 473 kts | 65° |
| 2026-04-24 10:23 | -2.03731 | 60.91813 | 38794 ft | 473 kts | 65° |
| 2026-04-24 10:23 | -2.01084 | 60.97841 | 38791 ft | 472 kts | 65° |
| 2026-04-24 10:24 | -1.98443 | 61.03857 | 38791 ft | 472 kts | 65° |
| 2026-04-24 10:24 | -1.95824 | 61.09820 | 38788 ft | 473 kts | 65° |
| 2026-04-24 10:25 | -1.93172 | 61.15860 | 38789 ft | 472 kts | 65° |
| 2026-04-24 10:25 | -1.90541 | 61.21851 | 38788 ft | 471 kts | 65° |
| 2026-04-24 10:26 | -1.87912 | 61.27840 | 38789 ft | 471 kts | 65° |
| 2026-04-24 10:26 | -1.85294 | 61.33802 | 38788 ft | 470 kts | 65° |
| 2026-04-24 10:27 | -1.82666 | 61.39784 | 38789 ft | 470 kts | 65° |
| 2026-04-24 10:27 | -1.80044 | 61.45754 | 38788 ft | 469 kts | 65° |
| 2026-04-24 10:28 | -1.77423 | 61.51716 | 38789 ft | 469 kts | 65° |
| 2026-04-24 10:28 | -1.74802 | 61.57681 | 38789 ft | 469 kts | 65° |
| 2026-04-24 10:29 | -1.72191 | 61.63624 | 38789 ft | 469 kts | 65° |
| 2026-04-24 10:29 | -1.69569 | 61.69592 | 38788 ft | 469 kts | 65° |
| 2026-04-24 10:30 | -1.66946 | 61.75560 | 38789 ft | 469 kts | 65° |
| 2026-04-24 10:30 | -1.64339 | 61.81489 | 38789 ft | 467 kts | 65° |
| 2026-04-24 10:31 | -1.61730 | 61.87421 | 38787 ft | 466 kts | 65° |
| 2026-04-24 10:31 | -1.59136 | 61.93321 | 38789 ft | 466 kts | 65° |
| 2026-04-24 10:32 | -1.56530 | 61.99250 | 38790 ft | 465 kts | 65° |
| 2026-04-24 10:32 | -1.53930 | 62.05164 | 38788 ft | 465 kts | 65° |
| 2026-04-24 10:33 | -1.51328 | 62.11083 | 38789 ft | 465 kts | 65° |
| 2026-04-24 10:33 | -1.48724 | 62.17002 | 38792 ft | 464 kts | 65° |
| 2026-04-24 10:34 | -1.46124 | 62.22912 | 38795 ft | 465 kts | 65° |
| 2026-04-24 10:34 | -1.43533 | 62.28800 | 38799 ft | 465 kts | 65° |
| 2026-04-24 10:35 | -1.40948 | 62.34679 | 38801 ft | 464 kts | 65° |
| 2026-04-24 10:35 | -1.38350 | 62.40587 | 38800 ft | 464 kts | 65° |
| 2026-04-24 10:36 | -1.35747 | 62.46502 | 38801 ft | 463 kts | 65° |
| 2026-04-24 10:36 | -1.33160 | 62.52380 | 38798 ft | 463 kts | 65° |
| 2026-04-24 10:37 | -1.30579 | 62.58243 | 38799 ft | 463 kts | 65° |
| 2026-04-24 10:37 | -1.27987 | 62.64135 | 38794 ft | 463 kts | 65° |
| 2026-04-24 10:38 | -1.25398 | 62.70020 | 38789 ft | 462 kts | 65° |
| 2026-04-24 10:38 | -1.22806 | 62.75909 | 38788 ft | 463 kts | 65° |
| 2026-04-24 10:39 | -1.20214 | 62.81795 | 38788 ft | 463 kts | 65° |
| 2026-04-24 10:39 | -1.17640 | 62.87644 | 38789 ft | 463 kts | 65° |
| 2026-04-24 10:40 | -1.15045 | 62.93534 | 38787 ft | 463 kts | 65° |
| 2026-04-24 10:40 | -1.12467 | 62.99393 | 38800 ft | 463 kts | 65° |
| 2026-04-24 10:41 | -1.09868 | 63.05292 | 38789 ft | 463 kts | 65° |
| 2026-04-24 10:41 | -1.07283 | 63.11166 | 38776 ft | 463 kts | 65° |
| 2026-04-24 10:42 | -1.04695 | 63.17047 | 38789 ft | 462 kts | 65° |
| 2026-04-24 10:42 | -1.02108 | 63.22920 | 38792 ft | 462 kts | 65° |
| 2026-04-24 10:43 | -0.99526 | 63.28781 | 38794 ft | 462 kts | 65° |
| 2026-04-24 10:43 | -0.96936 | 63.34657 | 38788 ft | 462 kts | 65° |
| 2026-04-24 10:44 | -0.94349 | 63.40533 | 38790 ft | 462 kts | 65° |
| 2026-04-24 10:44 | -0.91751 | 63.46435 | 38806 ft | 462 kts | 65° |
| 2026-04-24 10:45 | -0.89167 | 63.52302 | 38811 ft | 463 kts | 65° |
| 2026-04-24 10:45 | -0.86584 | 63.58166 | 38814 ft | 463 kts | 65° |
| 2026-04-24 10:46 | -0.83986 | 63.64060 | 38818 ft | 463 kts | 65° |
| 2026-04-24 10:46 | -0.81397 | 63.69938 | 38815 ft | 463 kts | 65° |
| 2026-04-24 10:47 | -0.78812 | 63.75802 | 38807 ft | 462 kts | 66° |
| 2026-04-24 10:47 | -0.76227 | 63.81673 | 38812 ft | 463 kts | 65° |
| 2026-04-24 10:48 | -0.73643 | 63.87538 | 38808 ft | 463 kts | 65° |
| 2026-04-24 10:48 | -0.71052 | 63.93417 | 38802 ft | 463 kts | 65° |
| 2026-04-24 10:49 | -0.68470 | 63.99278 | 38783 ft | 462 kts | 65° |
| 2026-04-24 10:49 | -0.65887 | 64.05137 | 38793 ft | 462 kts | 65° |
| 2026-04-24 10:50 | -0.63295 | 64.11017 | 38789 ft | 462 kts | 66° |
| 2026-04-24 10:50 | -0.60714 | 64.16874 | 38788 ft | 462 kts | 66° |
| 2026-04-24 10:51 | -0.58125 | 64.22750 | 38789 ft | 462 kts | 66° |
| 2026-04-24 10:51 | -0.55543 | 64.28610 | 38788 ft | 462 kts | 66° |
| 2026-04-24 10:52 | -0.52956 | 64.34479 | 38789 ft | 462 kts | 65° |
| 2026-04-24 10:52 | -0.50380 | 64.40320 | 38788 ft | 461 kts | 66° |
| 2026-04-24 10:53 | -0.47794 | 64.46185 | 38788 ft | 460 kts | 66° |
| 2026-04-24 10:53 | -0.45206 | 64.52052 | 38788 ft | 462 kts | 66° |
| 2026-04-24 10:54 | -0.42625 | 64.57915 | 38788 ft | 462 kts | 66° |
| 2026-04-24 10:54 | -0.40042 | 64.63765 | 38788 ft | 465 kts | 66° |
| 2026-04-24 10:55 | -0.37431 | 64.69685 | 38788 ft | 465 kts | 66° |
| 2026-04-24 10:55 | -0.34832 | 64.75586 | 38789 ft | 466 kts | 66° |
| 2026-04-24 10:56 | -0.32224 | 64.81496 | 38791 ft | 466 kts | 66° |
| 2026-04-24 10:56 | -0.29614 | 64.87419 | 38800 ft | 465 kts | 66° |
| 2026-04-24 10:57 | -0.27021 | 64.93303 | 38807 ft | 464 kts | 66° |
| 2026-04-24 10:57 | -0.24418 | 64.99208 | 38809 ft | 465 kts | 66° |
| 2026-04-24 10:58 | -0.21804 | 65.05133 | 38809 ft | 466 kts | 66° |
| 2026-04-24 10:58 | -0.19205 | 65.11025 | 38809 ft | 466 kts | 66° |
| 2026-04-24 10:59 | -0.16586 | 65.16956 | 38808 ft | 465 kts | 67° |
| 2026-04-24 10:59 | -0.13986 | 65.22849 | 38802 ft | 465 kts | 67° |
| 2026-04-24 11:00 | -0.11378 | 65.28760 | 38797 ft | 464 kts | 67° |
| 2026-04-24 11:00 | -0.08781 | 65.34644 | 38797 ft | 465 kts | 67° |
| 2026-04-24 11:01 | -0.06167 | 65.40558 | 38798 ft | 466 kts | 67° |
| 2026-04-24 11:01 | -0.03543 | 65.46483 | 38796 ft | 466 kts | 67° |
| 2026-04-24 11:02 | -0.00937 | 65.52377 | 38797 ft | 466 kts | 67° |
| 2026-04-24 11:02 | 0.01810 | 65.58228 | 38794 ft | 466 kts | 65° |
| 2026-04-24 11:03 | 0.04684 | 65.64016 | 38789 ft | 466 kts | 64° |
| 2026-04-24 11:03 | 0.07576 | 65.69809 | 38789 ft | 465 kts | 64° |
| 2026-04-24 11:04 | 0.10460 | 65.75578 | 38788 ft | 464 kts | 64° |
| 2026-04-24 11:04 | 0.13331 | 65.81324 | 38788 ft | 464 kts | 64° |
| 2026-04-24 11:05 | 0.16222 | 65.87106 | 38789 ft | 464 kts | 65° |
| 2026-04-24 11:05 | 0.19090 | 65.92844 | 38788 ft | 463 kts | 65° |
| 2026-04-24 11:06 | 0.21963 | 65.98598 | 38788 ft | 463 kts | 65° |
| 2026-04-24 11:06 | 0.24853 | 66.04382 | 38788 ft | 464 kts | 65° |
| 2026-04-24 11:07 | 0.29171 | 66.13030 | 38788 ft | 465 kts | 65° |
| 2026-04-24 11:07 | 0.32043 | 66.18779 | 38788 ft | 465 kts | 64° |
| 2026-04-24 11:08 | 0.34939 | 66.24572 | 38789 ft | 465 kts | 64° |
| 2026-04-24 11:08 | 0.37813 | 66.30321 | 38790 ft | 464 kts | 65° |
| 2026-04-24 11:09 | 0.40697 | 66.36094 | 38799 ft | 465 kts | 65° |
| 2026-04-24 11:09 | 0.43599 | 66.41901 | 38806 ft | 466 kts | 65° |
| 2026-04-24 11:10 | 0.46493 | 66.47694 | 38809 ft | 467 kts | 65° |
| 2026-04-24 11:10 | 0.49378 | 66.53474 | 38809 ft | 467 kts | 64° |
| 2026-04-24 11:11 | 0.52273 | 66.59266 | 38809 ft | 467 kts | 64° |
| 2026-04-24 11:11 | 0.55183 | 66.65088 | 38809 ft | 467 kts | 64° |
| 2026-04-24 11:12 | 0.58063 | 66.70855 | 38809 ft | 467 kts | 64° |
| 2026-04-24 11:12 | 0.60974 | 66.76685 | 38809 ft | 467 kts | 64° |
| 2026-04-24 11:13 | 0.63878 | 66.82494 | 38808 ft | 467 kts | 64° |
| 2026-04-24 11:13 | 0.66771 | 66.88287 | 38807 ft | 468 kts | 64° |
| 2026-04-24 11:14 | 0.69680 | 66.94112 | 38809 ft | 468 kts | 64° |
| 2026-04-24 11:14 | 0.72575 | 66.99905 | 38808 ft | 467 kts | 64° |
| 2026-04-24 11:15 | 0.75481 | 67.05724 | 38802 ft | 467 kts | 64° |
| 2026-04-24 11:15 | 0.78384 | 67.11533 | 38799 ft | 470 kts | 64° |
| 2026-04-24 11:16 | 0.81309 | 67.17396 | 38793 ft | 469 kts | 64° |
| 2026-04-24 11:16 | 0.84211 | 67.23206 | 38790 ft | 469 kts | 64° |
| 2026-04-24 11:17 | 0.87121 | 67.29034 | 38789 ft | 470 kts | 64° |
| 2026-04-24 11:17 | 0.90032 | 67.34862 | 38788 ft | 470 kts | 64° |
| 2026-04-24 11:18 | 0.92954 | 67.40711 | 38789 ft | 471 kts | 64° |
| 2026-04-24 11:18 | 0.95883 | 67.46577 | 38788 ft | 471 kts | 65° |
| 2026-04-24 11:19 | 0.98803 | 67.52427 | 38789 ft | 472 kts | 65° |
| 2026-04-24 11:19 | 1.01721 | 67.58270 | 38788 ft | 472 kts | 65° |
| 2026-04-24 11:20 | 1.04638 | 67.64116 | 38789 ft | 473 kts | 65° |
| 2026-04-24 11:20 | 1.07579 | 67.70009 | 38789 ft | 473 kts | 64° |
| 2026-04-24 11:21 | 1.10516 | 67.75892 | 38795 ft | 472 kts | 64° |
| 2026-04-24 11:21 | 1.13441 | 67.81749 | 38805 ft | 473 kts | 65° |
| 2026-04-24 11:22 | 1.16366 | 67.87613 | 38809 ft | 474 kts | 64° |
| 2026-04-24 11:22 | 1.19299 | 67.93484 | 38809 ft | 473 kts | 65° |
| 2026-04-24 11:23 | 1.22250 | 67.99399 | 38809 ft | 474 kts | 65° |
| 2026-04-24 11:23 | 1.25179 | 68.05269 | 38809 ft | 475 kts | 65° |
| 2026-04-24 11:24 | 1.28130 | 68.11182 | 38810 ft | 475 kts | 65° |
| 2026-04-24 11:24 | 1.31080 | 68.17094 | 38809 ft | 476 kts | 65° |
| 2026-04-24 11:25 | 1.34028 | 68.23006 | 38809 ft | 475 kts | 65° |
| 2026-04-24 11:25 | 1.36974 | 68.28909 | 38809 ft | 475 kts | 65° |
| 2026-04-24 11:26 | 1.39923 | 68.34817 | 38810 ft | 476 kts | 65° |
| 2026-04-24 11:26 | 1.42866 | 68.40715 | 38809 ft | 477 kts | 65° |
| 2026-04-24 11:27 | 1.45826 | 68.46651 | 38809 ft | 477 kts | 65° |
| 2026-04-24 11:27 | 1.48792 | 68.52600 | 38809 ft | 477 kts | 65° |
| 2026-04-24 11:28 | 1.51734 | 68.58497 | 38809 ft | 477 kts | 65° |
| 2026-04-24 11:28 | 1.54703 | 68.64449 | 38809 ft | 477 kts | 65° |
| 2026-04-24 11:29 | 1.57647 | 68.70351 | 38804 ft | 477 kts | 65° |
| 2026-04-24 11:29 | 1.60604 | 68.76281 | 38800 ft | 477 kts | 65° |
| 2026-04-24 11:30 | 1.63563 | 68.82210 | 38796 ft | 477 kts | 65° |
| 2026-04-24 11:30 | 1.66522 | 68.88141 | 38799 ft | 479 kts | 65° |
| 2026-04-24 11:31 | 1.69496 | 68.94105 | 38797 ft | 479 kts | 65° |
| 2026-04-24 11:31 | 1.72474 | 69.00070 | 38791 ft | 480 kts | 65° |
| 2026-04-24 11:32 | 1.75452 | 69.06033 | 38789 ft | 479 kts | 65° |
| 2026-04-24 11:32 | 1.78417 | 69.11958 | 38790 ft | 478 kts | 65° |
| 2026-04-24 11:33 | 1.81383 | 69.17891 | 38788 ft | 478 kts | 64° |
| 2026-04-24 11:33 | 1.84553 | 69.23756 | 38789 ft | 479 kts | 63° |
| 2026-04-24 11:34 | 1.87770 | 69.29591 | 38795 ft | 479 kts | 62° |
| 2026-04-24 11:34 | 1.90998 | 69.35427 | 38805 ft | 479 kts | 62° |
| 2026-04-24 11:35 | 1.94215 | 69.41250 | 38810 ft | 479 kts | 62° |
| 2026-04-24 11:35 | 1.97422 | 69.47054 | 38809 ft | 479 kts | 62° |
| 2026-04-24 11:36 | 2.00639 | 69.52871 | 38809 ft | 479 kts | 62° |
| 2026-04-24 11:36 | 2.03872 | 69.58722 | 38810 ft | 479 kts | 62° |
| 2026-04-24 11:37 | 2.07069 | 69.64508 | 38809 ft | 479 kts | 63° |
| 2026-04-24 11:37 | 2.10290 | 69.70338 | 38808 ft | 479 kts | 63° |
| 2026-04-24 11:38 | 2.13504 | 69.76160 | 38810 ft | 479 kts | 63° |
| 2026-04-24 11:38 | 2.16733 | 69.82008 | 38810 ft | 478 kts | 62° |
| 2026-04-24 11:39 | 2.19946 | 69.87826 | 38809 ft | 478 kts | 62° |
| 2026-04-24 11:39 | 2.23150 | 69.93629 | 38809 ft | 479 kts | 62° |
| 2026-04-24 11:40 | 2.26360 | 69.99439 | 38809 ft | 478 kts | 63° |
| 2026-04-24 11:40 | 2.29594 | 70.05296 | 38809 ft | 478 kts | 63° |
| 2026-04-24 11:41 | 2.32785 | 70.11076 | 38808 ft | 478 kts | 63° |
| 2026-04-24 11:41 | 2.36011 | 70.16924 | 38809 ft | 478 kts | 63° |
| 2026-04-24 11:42 | 2.39207 | 70.22714 | 38810 ft | 477 kts | 63° |
| 2026-04-24 11:42 | 2.42394 | 70.28494 | 38809 ft | 477 kts | 63° |
| 2026-04-24 11:43 | 2.45605 | 70.34314 | 38809 ft | 477 kts | 63° |
| 2026-04-24 11:43 | 2.48806 | 70.40113 | 38809 ft | 477 kts | 63° |
| 2026-04-24 11:44 | 2.52018 | 70.45937 | 38809 ft | 477 kts | 63° |
| 2026-04-24 11:44 | 2.55202 | 70.51708 | 38809 ft | 476 kts | 63° |
| 2026-04-24 11:45 | 2.58402 | 70.57511 | 38807 ft | 477 kts | 63° |
| 2026-04-24 11:45 | 2.61590 | 70.63292 | 38800 ft | 476 kts | 63° |
| 2026-04-24 11:46 | 2.64783 | 70.69087 | 38805 ft | 476 kts | 63° |
| 2026-04-24 11:46 | 2.67989 | 70.74901 | 38816 ft | 477 kts | 63° |
| 2026-04-24 11:47 | 2.71170 | 70.80675 | 38817 ft | 478 kts | 63° |
| 2026-04-24 11:47 | 2.74381 | 70.86502 | 38811 ft | 478 kts | 63° |
| 2026-04-24 11:48 | 2.77582 | 70.92310 | 38810 ft | 478 kts | 63° |
| 2026-04-24 11:48 | 2.80784 | 70.98122 | 38808 ft | 477 kts | 63° |
| 2026-04-24 11:49 | 2.83977 | 71.03917 | 38809 ft | 477 kts | 63° |
| 2026-04-24 11:49 | 2.87182 | 71.09734 | 38810 ft | 478 kts | 63° |
| 2026-04-24 11:50 | 2.90382 | 71.15547 | 38810 ft | 478 kts | 63° |
| 2026-04-24 11:50 | 2.93597 | 71.21388 | 38809 ft | 478 kts | 63° |
| 2026-04-24 11:51 | 2.96787 | 71.27182 | 38809 ft | 479 kts | 63° |
| 2026-04-24 11:51 | 3.00019 | 71.33051 | 38809 ft | 479 kts | 63° |
| 2026-04-24 11:52 | 3.03219 | 71.38866 | 38797 ft | 479 kts | 63° |
| 2026-04-24 11:52 | 3.04824 | 71.41783 | 38271 ft | 480 kts | 63° |
| 2026-04-24 11:52 | 3.06431 | 71.44701 | 37712 ft | 478 kts | 63° |
| 2026-04-24 11:53 | 3.08031 | 71.47607 | 37146 ft | 479 kts | 63° |
| 2026-04-24 11:53 | 3.09619 | 71.50493 | 36586 ft | 479 kts | 63° |
| 2026-04-24 11:53 | 3.11232 | 71.53422 | 36018 ft | 478 kts | 64° |
| 2026-04-24 11:53 | 3.12826 | 71.56320 | 35459 ft | 478 kts | 64° |
| 2026-04-24 11:54 | 3.14431 | 71.59238 | 34899 ft | 478 kts | 64° |
| 2026-04-24 11:54 | 3.16033 | 71.62153 | 34342 ft | 479 kts | 64° |
| 2026-04-24 11:54 | 3.17639 | 71.65071 | 33789 ft | 480 kts | 64° |
| 2026-04-24 11:54 | 3.19248 | 71.67999 | 33238 ft | 481 kts | 64° |
| 2026-04-24 11:55 | 3.20847 | 71.70907 | 32694 ft | 482 kts | 64° |
| 2026-04-24 11:55 | 3.22460 | 71.73840 | 32184 ft | 483 kts | 64° |
| 2026-04-24 11:55 | 3.24084 | 71.76794 | 31688 ft | 483 kts | 64° |
| 2026-04-24 11:55 | 3.25702 | 71.79737 | 31197 ft | 485 kts | 64° |
| 2026-04-24 11:56 | 3.27331 | 71.82698 | 30705 ft | 486 kts | 64° |
| 2026-04-24 11:56 | 3.28963 | 71.85661 | 30214 ft | 487 kts | 64° |
| 2026-04-24 11:56 | 3.30587 | 71.88615 | 29728 ft | 488 kts | 63° |
| 2026-04-24 11:56 | 3.32229 | 71.91599 | 29237 ft | 488 kts | 63° |
| 2026-04-24 11:57 | 3.33862 | 71.94559 | 28753 ft | 490 kts | 64° |
| 2026-04-24 11:57 | 3.35519 | 71.97563 | 28275 ft | 491 kts | 63° |
| 2026-04-24 11:57 | 3.37158 | 72.00535 | 27829 ft | 493 kts | 64° |
| 2026-04-24 11:57 | 3.38811 | 72.03539 | 27376 ft | 494 kts | 63° |
| 2026-04-24 11:58 | 3.40464 | 72.06555 | 26920 ft | 491 kts | 64° |
| 2026-04-24 11:58 | 3.42047 | 72.09526 | 26478 ft | 487 kts | 64° |
| 2026-04-24 11:58 | 3.43620 | 72.12509 | 26025 ft | 483 kts | 64° |
| 2026-04-24 11:58 | 3.45195 | 72.15494 | 25590 ft | 481 kts | 64° |
| 2026-04-24 11:59 | 3.46744 | 72.18422 | 25171 ft | 479 kts | 64° |
| 2026-04-24 11:59 | 3.48307 | 72.21366 | 24738 ft | 476 kts | 64° |
| 2026-04-24 11:59 | 3.49839 | 72.24249 | 24313 ft | 473 kts | 64° |
| 2026-04-24 11:59 | 3.51383 | 72.27154 | 23883 ft | 470 kts | 63° |
| 2026-04-24 12:00 | 3.52916 | 72.30032 | 23459 ft | 467 kts | 63° |
| 2026-04-24 12:00 | 3.54445 | 72.32904 | 23030 ft | 463 kts | 63° |
| 2026-04-24 12:00 | 3.55942 | 72.35715 | 22608 ft | 461 kts | 63° |
| 2026-04-24 12:00 | 3.57451 | 72.38549 | 22181 ft | 458 kts | 63° |
| 2026-04-24 12:01 | 3.58934 | 72.41331 | 21763 ft | 455 kts | 63° |
| 2026-04-24 12:01 | 3.60411 | 72.44105 | 21342 ft | 450 kts | 63° |
| 2026-04-24 12:01 | 3.61877 | 72.46860 | 20918 ft | 445 kts | 63° |
| 2026-04-24 12:01 | 3.63325 | 72.49579 | 20496 ft | 440 kts | 62° |
| 2026-04-24 12:02 | 3.64753 | 72.52260 | 20074 ft | 436 kts | 62° |
| 2026-04-24 12:02 | 3.66183 | 72.54942 | 19648 ft | 432 kts | 62° |
| 2026-04-24 12:02 | 3.67589 | 72.57581 | 19226 ft | 428 kts | 62° |
| 2026-04-24 12:02 | 3.68969 | 72.60171 | 18802 ft | 423 kts | 62° |
| 2026-04-24 12:03 | 3.70351 | 72.62767 | 18380 ft | 419 kts | 62° |
| 2026-04-24 12:03 | 3.71718 | 72.65329 | 17959 ft | 416 kts | 62° |
| 2026-04-24 12:03 | 3.73061 | 72.67847 | 17541 ft | 412 kts | 62° |
| 2026-04-24 12:03 | 3.74404 | 72.70363 | 17120 ft | 407 kts | 62° |
| 2026-04-24 12:04 | 3.75732 | 72.72852 | 16702 ft | 404 kts | 62° |
| 2026-04-24 12:04 | 3.77040 | 72.75306 | 16286 ft | 402 kts | 62° |
| 2026-04-24 12:04 | 3.78361 | 72.77789 | 15866 ft | 401 kts | 62° |
| 2026-04-24 12:04 | 3.79566 | 72.80271 | 15493 ft | 399 kts | 65° |
| 2026-04-24 12:05 | 3.80646 | 72.82855 | 15115 ft | 398 kts | 68° |
| 2026-04-24 12:05 | 3.81673 | 72.85418 | 14743 ft | 396 kts | 68° |
| 2026-04-24 12:05 | 3.82690 | 72.87965 | 14370 ft | 394 kts | 68° |
| 2026-04-24 12:05 | 3.83697 | 72.90482 | 14001 ft | 393 kts | 68° |
| 2026-04-24 12:06 | 3.84714 | 72.93021 | 13624 ft | 390 kts | 68° |
| 2026-04-24 12:06 | 3.85726 | 72.95542 | 13246 ft | 389 kts | 68° |
| 2026-04-24 12:06 | 3.86720 | 72.98015 | 12874 ft | 387 kts | 68° |
| 2026-04-24 12:06 | 3.87718 | 73.00500 | 12491 ft | 378 kts | 68° |
| 2026-04-24 12:07 | 3.88689 | 73.02914 | 12132 ft | 367 kts | 68° |
| 2026-04-24 12:07 | 3.89616 | 73.05218 | 11780 ft | 356 kts | 68° |
| 2026-04-24 12:07 | 3.90534 | 73.07495 | 11424 ft | 347 kts | 68° |
| 2026-04-24 12:07 | 3.91425 | 73.09705 | 11068 ft | 335 kts | 68° |
| 2026-04-24 12:08 | 3.92267 | 73.11798 | 10709 ft | 320 kts | 68° |
| 2026-04-24 12:08 | 3.93079 | 73.13818 | 10352 ft | 305 kts | 68° |
| 2026-04-24 12:08 | 3.93857 | 73.15756 | 9988 ft | 292 kts | 68° |
| 2026-04-24 12:08 | 3.94530 | 73.17636 | 9624 ft | 281 kts | 76° |
| 2026-04-24 12:09 | 3.94814 | 73.19514 | 9271 ft | 272 kts | 86° |
| 2026-04-24 12:09 | 3.94841 | 73.21380 | 8912 ft | 264 kts | 89° |
| 2026-04-24 12:09 | 3.94830 | 73.23201 | 8546 ft | 256 kts | 89° |
| 2026-04-24 12:09 | 3.94818 | 73.24951 | 8227 ft | 248 kts | 89° |
| 2026-04-24 12:10 | 3.94812 | 73.26635 | 7915 ft | 241 kts | 89° |
| 2026-04-24 12:10 | 3.94810 | 73.28291 | 7605 ft | 234 kts | 89° |
| 2026-04-24 12:10 | 3.94810 | 73.29899 | 7425 ft | 232 kts | 89° |
| 2026-04-24 12:11 | 3.94817 | 73.33111 | 6817 ft | 230 kts | 89° |
| 2026-04-24 12:11 | 3.94822 | 73.34710 | 6509 ft | 230 kts | 89° |
| 2026-04-24 12:11 | 3.94825 | 73.36301 | 6202 ft | 229 kts | 89° |
| 2026-04-24 12:11 | 3.94829 | 73.37892 | 5891 ft | 228 kts | 89° |
| 2026-04-24 12:12 | 3.94833 | 73.39480 | 5559 ft | 227 kts | 89° |
| 2026-04-24 12:12 | 3.94839 | 73.41589 | 5133 ft | 226 kts | 88° |
| 2026-04-24 12:12 | 3.94840 | 73.42619 | 4948 ft | 225 kts | 89° |
| 2026-04-24 12:12 | 3.94840 | 73.44184 | 4630 ft | 225 kts | 88° |
| 2026-04-24 12:13 | 3.94842 | 73.45743 | 4326 ft | 224 kts | 89° |
| 2026-04-24 12:13 | 3.94844 | 73.47298 | 4063 ft | 223 kts | 89° |
| 2026-04-24 12:13 | 3.94845 | 73.48843 | 4005 ft | 219 kts | 89° |
| 2026-04-24 12:13 | 3.94847 | 73.50362 | 3981 ft | 217 kts | 89° |
| 2026-04-24 12:14 | 3.94970 | 73.51854 | 3981 ft | 216 kts | 73° |
| 2026-04-24 12:14 | 3.95829 | 73.53075 | 3978 ft | 216 kts | 38° |
| 2026-04-24 12:14 | 3.97214 | 73.53584 | 3986 ft | 216 kts | 5° |
| 2026-04-24 12:14 | 3.98700 | 73.53456 | 3851 ft | 211 kts | 352° |
| 2026-04-24 12:15 | 4.00150 | 73.53271 | 3557 ft | 206 kts | 354° |
| 2026-04-24 12:15 | 4.01568 | 73.53182 | 3321 ft | 199 kts | 357° |
| 2026-04-24 12:15 | 4.02922 | 73.53154 | 3037 ft | 187 kts | 359° |
| 2026-04-24 12:15 | 4.04189 | 73.53148 | 2772 ft | 174 kts | 359° |
| 2026-04-24 12:16 | 4.05362 | 73.53146 | 2530 ft | 162 kts | 359° |
| 2026-04-24 12:16 | 4.06451 | 73.53144 | 2330 ft | 151 kts | 359° |
| 2026-04-24 12:16 | 4.07468 | 73.53141 | 2146 ft | 140 kts | 359° |
| 2026-04-24 12:16 | 4.08430 | 73.53137 | 1971 ft | 135 kts | 359° |
| 2026-04-24 12:17 | 4.09369 | 73.53134 | 1803 ft | 134 kts | 359° |
| 2026-04-24 12:17 | 4.10304 | 73.53132 | 1625 ft | 134 kts | 359° |
| 2026-04-24 12:17 | 4.11242 | 73.53130 | 1444 ft | 134 kts | 358° |
| 2026-04-24 12:17 | 4.12172 | 73.53128 | 1263 ft | 134 kts | 358° |
| 2026-04-24 12:18 | 4.13101 | 73.53127 | 1082 ft | 133 kts | 358° |
| 2026-04-24 12:18 | 4.14032 | 73.53125 | 902 ft | 131 kts | 358° |
| 2026-04-24 12:18 | 4.14951 | 73.53107 | 734 ft | 130 kts | 355° |
| 2026-04-24 12:18 | 4.15858 | 73.53108 | 547 ft | 132 kts | 358° |
| 2026-04-24 12:19 | 4.16772 | 73.53111 | 375 ft | 131 kts | 356° |
| 2026-04-24 12:19 | 4.17697 | 73.53111 | 192 ft | 131 kts | 356° |
| 2026-04-24 12:19 | 4.18602 | 73.53104 | 37 ft | 130 kts | 356° |
| 2026-04-24 12:19 | 4.19400 | 73.53097 | 16 ft | 83 kts | 0° |
| 2026-04-24 12:20 | 4.19653 | 73.53098 | 14 ft | 13 kts | 347° |
| 2026-04-24 12:20 | 4.19687 | 73.53020 | 14 ft | 12 kts | 269° |
| 2026-04-24 12:20 | 4.19683 | 73.52937 | 14 ft | 11 kts | 252° |
| 2026-04-24 12:20 | 4.19616 | 73.52908 | 15 ft | 12 kts | 178° |
| 2026-04-24 12:21 | 4.19459 | 73.52911 | 16 ft | 26 kts | 181° |
| 2026-04-24 12:21 | 4.19272 | 73.52912 | 17 ft | 28 kts | 179° |
| 2026-04-24 12:21 | 4.19093 | 73.52914 | 17 ft | 22 kts | 179° |
| 2026-04-24 12:21 | 4.18965 | 73.52917 | 17 ft | 10 kts | 188° |
| 2026-04-24 12:22 | 4.18920 | 73.52872 | 17 ft | 8 kts | 229° |
| 2026-04-24 12:22 | 4.18875 | 73.52850 | 17 ft | 5 kts | 222° |
| 2026-04-24 12:22 | 4.18870 | 73.52813 | 16 ft | 2 kts | 269° |
| 2026-04-24 12:22 | 4.18870 | 73.52795 | 15 ft | 0 kts | 268° |